Racecast

MHSAA LP D1 State Finals

Michigan International Speedway (MIS) · 5000m · Boys · Compiled · MI

255 runners from 1 division

These divisions were run separately. This is how their times compare, not how they finished — the places and scores below were never contested.

View full meet →

Team scores

Place Team Points 12345 67
1 Rockford (MI) 140 4 11 31 32 62 114 146
2 White Lake Lakeland (MI) 146 13 19 20 45 49 74 165
3 Waterford Mott (MI) 149 5 27 36 37 44 100 128
4 Northville (MI) 165 14 17 21 34 79 96 116
5 Saline (MI) 205 2 9 60 64 70 93 101
6 TC Central (Traverse City) (MI) 223 3 28 30 54 108 138 150
7 Walled Lake Central (MI) 240 24 26 48 65 77 88 154
8 Pinckney (MI) 243 16 25 29 82 91 103 174
9 Grand Blanc (MI) 264 1 40 47 55 121 136 145
10 Rochester (MI) 291 35 50 59 61 86 111 184
11 Holly (MI) 300 22 23 33 107 115 133 142
12 TC West (Traverse City) (MI) 311 18 46 51 69 127 153 164
13 Okemos (MI) 347 41 58 67 68 113 120 132
14 Ann Arbor Skyline (MI) 349 7 75 78 87 102 104 139
15 Novi (MI) 356 10 71 73 97 105 117 143
16 Port Huron Northern (MI) 381 12 15 83 123 148 185
17 Detroit Catholic Central (MI) 391 56 57 72 80 126 152 172
18 Clarkston (MI) 397 39 42 66 119 131 151 161
19 Lake Orion (MI) 417 8 52 98 112 147 168 181
20 Ann Arbor Pioneer (MI) 432 63 84 89 90 106 130 144
21 Portage Central (MI) 452 6 76 99 134 137 158 182
22 Grand Haven (MI) 534 53 94 118 129 140 149 155
23 Hudsonville (MI) 548 43 92 122 135 156 162 163
24 Temperance Bedford (MI) 586 81 95 109 141 160 166 176
25 Macomb L'Anse Creuse North (MI) 634 38 85 157 171 183 186 187
26 SCS Lakeview (MI) 730 110 124 159 167 170 173 175
27 Grosse Pointe North (MI) 828 125 169 177 178 179 180

Not scored, fewer than five finishers: Grand Ledge (3), Sterling Heights (3), GR Kenowa Hills (2), Alpena (2), Warren DeLaSalle (2), Woodhaven Brownstown (2), Rochester Adams (2), Davison (2), Romeo (2), East Lansing (2), Wayne Memorial (2), Oxford (2), Livonia Franklin (2), East Kentwood (2), Monroe (2), Caledonia (2), Salem (1), Midland (1), Saginaw Heritage (1), Wyandotte Roosevelt (1), Plymouth (1), Troy (1), Howell (1), Ann Arbor Huron (1), Highland-Milford (1), Berkley (1), GR Northview (1), Holt (1), Brother Rice (1), FH Harrison (Closed June '19) (1), Midland Dow (1), Walled Lake Western (1), Fraser (1), Jackson (1), Rochester Hills Stoney Creek (1), Birmingham Seaholm (1), Holland West Ottawa (1), Warren Mott (1), Dearborn (1), Utica (1), Flushing (1), Livonia Stevenson (1), Clinton Twp. Chippewa Valley (1), Grandville (1), Troy Athens (1), Southgate Anderson (1), Dearborn Edsel Ford (1), Fenton (1), Harrison Twp. L'Anse Creuse (1), Jenison (1)

Results

Place Athlete Grade School Time Rating Points Actual race
1 Grant Fisher 12 Grand Blanc (MI) 1 14:52.5 138.5 1 1
2 Logan Wetzel 12 Saline (MI) 1 15:19.2 134.5 2 2
3 Anthony Berry 11 TC Central (Traverse City) (MI) 1 15:21.1 134.2 3 3
4 Isaac Harding 11 Rockford (MI) 1 15:23.2 133.9 4 4
5 Ryan Robinson 12 Waterford Mott (MI) 1 15:23.4 133.9 5 5
6 Donavan Brazier 12 GR Kenowa Hills (MI) 1 15:25.4 133.6 6
7 Connor Wuori 12 Portage Central (MI) 1 15:25.5 133.6 6 7
8 Jon Russell 12 Ann Arbor Skyline (MI) 1 15:27.3 133.3 7 8
9 Chaz Jeffress 11 Salem (MI) 1 15:29.8 132.9 9
10 Andrew Lorant 11 Lake Orion (MI) 1 15:32.0 132.6 8 10
11 Kevin Hall 12 Saline (MI) 2 15:35.9 132.1 9 11
12 Jacob Greer 12 Midland (MI) 1 15:38.3 131.8 12
13 Joost Plaetinck 11 Novi (MI) 1 15:39.5 131.6 10 13
14 Mitchell Day 10 Alpena (MI) 1 15:40.2 131.5 14
15 Parker Eisengruber 12 Saginaw Heritage (MI) 1 15:40.3 131.5 15
16 Cole Johnson 9 Rockford (MI) 2 15:40.9 131.4 11 16
17 Matt Thomas 12 Port Huron Northern (MI) 1 15:41.2 131.3 12 17
18 Mickey Davey 12 Warren DeLaSalle (MI) 1 15:43.0 131.1 18
19 Logan Kleam 11 Woodhaven Brownstown (MI) 1 15:43.1 131.1 19
20 Dominic Davis 12 Wyandotte Roosevelt (MI) 1 15:44.2 130.9 20
21 Adam Beck 12 Rochester Adams (MI) 1 15:45.1 130.8 21
22 Joe Renner 12 Davison (MI) 1 15:45.1 130.8 22
23 Jackson Grzymkowski 11 White Lake Lakeland (MI) 1 15:45.3 130.8 13 23
24 Jacob Domagalski 12 Romeo (MI) 1 15:45.4 130.8 24
25 Matthew (Matt) Pahl 12 Plymouth (MI) 1 15:45.5 130.8 25
26 Nick Noles 12 Northville (MI) 1 15:46.2 130.7 14 26
27 Bradley Mallory 12 Port Huron Northern (MI) 2 15:46.3 130.6 15 27
28 Kunal Tangri 12 Troy (MI) 1 15:46.9 130.6 28
29 Brian Moore 12 Howell (MI) 1 15:47.1 130.5 29
30 Isaac Harris 12 Pinckney (MI) 1 15:48.4 130.3 16 30
31 Jacob Stanton 11 East Lansing (MI) 1 15:49.1 130.2 31
32 Conor Naughton 11 Northville (MI) 2 15:51.0 130.0 17 32
33 Nick Schmidt 12 Davison (MI) 2 15:53.8 129.6 33
34 Nick Hirschenberger 11 TC West (Traverse City) (MI) 1 15:54.3 129.5 18 34
35 Blake McComas 12 White Lake Lakeland (MI) 2 15:55.0 129.4 19 35
36 Kyle Garbovits 11 White Lake Lakeland (MI) 3 15:57.3 129.1 20 36
37 Lynus Zullo 12 Ann Arbor Huron (MI) 1 15:59.8 128.8 37
38 Jason Ferrante 12 Northville (MI) 3 16:00.0 128.8 21 38
39 Dilon Lemond 11 Holly (MI) 1 16:01.6 128.6 22 39
40 Nate Frasier 12 Holly (MI) 2 16:02.7 128.4 23 40
41 Evan Meyer 9 East Lansing (MI) 2 16:03.8 128.3 41
42 Tristan Fackelman 12 Walled Lake Central (MI) 1 16:04.6 128.2 24 42
43 Sean Noone 12 Highland-Milford (MI) 1 16:05.1 128.1 43
44 Austin Wicker 11 Pinckney (MI) 2 16:05.2 128.1 25 44
45 Andrew Bill 11 Berkley (MI) 1 16:06.3 127.9 45
46 Jared Hill 10 Walled Lake Central (MI) 2 16:07.0 127.8 26 46
47 Enael Woldemichael 11 GR Northview (MI) 1 16:07.1 127.8 47
48 Sam Albaugh 12 Waterford Mott (MI) 2 16:07.3 127.8 27 48
49 Keefer Edwards 12 TC Central (Traverse City) (MI) 2 16:07.6 127.8 28 49
50 Alberto Gomez 12 Holt (MI) 1 16:09.1 127.6 50
51 Malik Jordan 12 Wayne Memorial (MI) 1 16:10.1 127.4 51
52 Ryan Talbott 10 Pinckney (MI) 3 16:10.8 127.3 29 52
53 John Penington 12 Brother Rice (MI) 1 16:10.9 127.3 53
54 James Weekley 11 FH Harrison (Closed June '19) (MI) 1 16:11.2 127.3 54
55 Kyle Barger 10 TC Central (Traverse City) (MI) 3 16:11.7 127.2 30 55
56 Jack Twarozynski 12 Grand Ledge (MI) 1 16:12.0 127.2 56
57 Paul Burke 12 Rockford (MI) 3 16:13.2 127.0 31 57
58 Grayson Harding 11 Rockford (MI) 4 16:13.5 127.0 32 58
59 Kurtis Cooley 12 Holly (MI) 3 16:13.6 127.0 33 59
60 Sean McCullough 12 Northville (MI) 4 16:13.9 126.9 34 60
61 Zach Hoffman 12 Midland Dow (MI) 1 16:14.4 126.9 61
62 Kyle Repetto 12 Rochester (MI) 1 16:15.1 126.8 35 62
63 Luke Peterson 12 Waterford Mott (MI) 3 16:15.1 126.8 36 63
64 Blake Borkowski 12 Waterford Mott (MI) 4 16:15.3 126.8 37 64
65 Logan Bruni 12 Oxford (MI) 1 16:15.5 126.7 65
66 Devin Gibson 12 Wayne Memorial (MI) 2 16:15.6 126.7 66
67 Thomas Michno 10 Macomb L'Anse Creuse North (MI) 1 16:16.0 126.7 38 67
68 Christian Hubaker 10 Grand Ledge (MI) 2 16:17.3 126.5 68
69 Gabe Hogan 11 Oxford (MI) 2 16:17.7 126.4 69
70 Tyler Dunn 12 Clarkston (MI) 1 16:17.8 126.4 39 70
71 Isaac Cross 10 Alpena (MI) 2 16:19.0 126.3 71
72 Jonathan Voth 11 Grand Blanc (MI) 2 16:19.6 126.2 40 72
73 Tony Floyd 11 Livonia Franklin (MI) 1 16:21.1 126.0 73
74 Saano Murembya 9 Okemos (MI) 1 16:21.5 126.0 41 74
75 Grant Henley 11 Clarkston (MI) 2 16:21.8 125.9 42 75
76 Garett Smith 12 Hudsonville (MI) 1 16:22.2 125.9 43 76
77 Kyler Bush 12 Waterford Mott (MI) 5 16:22.4 125.8 44 77
78 Trevor Learmont 12 White Lake Lakeland (MI) 4 16:22.5 125.8 45 78
79 Nick Amato 12 TC West (Traverse City) (MI) 2 16:23.0 125.8 46 79
80 Matt Schram 10 Rochester Adams (MI) 2 16:23.1 125.8 80
81 Austen Mandernach 12 Grand Blanc (MI) 3 16:23.8 125.7 47 81
82 Jeff Dunagin 12 Walled Lake Central (MI) 3 16:23.8 125.7 48 82
83 Drew Wenger 9 White Lake Lakeland (MI) 5 16:24.0 125.6 49 83
84 Kyle Johnson 10 Rochester (MI) 2 16:24.5 125.6 50 84
85 Jack Bleibtrey 11 Walled Lake Western (MI) 1 16:24.7 125.5 85
86 Jimmy Seekamp 12 TC West (Traverse City) (MI) 3 16:24.9 125.5 51 86
87 Jacob Arenz 11 Lake Orion (MI) 2 16:24.9 125.5 52 87
88 Jack Nicholson 9 Grand Haven (MI) 1 16:25.0 125.5 53 88
89 Cam McAuliffe 12 TC Central (Traverse City) (MI) 4 16:25.5 125.4 54 89
90 Drake Gauthier 12 Grand Blanc (MI) 4 16:25.6 125.4 55 90
91 Scott Smith 11 Detroit Catholic Central (MI) 1 16:25.8 125.4 56 91
92 Steven Stine 10 Fraser (MI) 1 16:25.8 125.4 92
93 Brendan Blackwell 12 Jackson (WA) 1 16:26.3 125.3 93
94 Adam Fraeyman 11 Romeo (MI) 2 16:26.5 125.3 94
95 Avery Felty 11 Detroit Catholic Central (MI) 2 16:27.0 125.2 57 95
96 Casey Neal 12 Rochester Hills Stoney Creek (MI) 1 16:28.0 125.1 96
97 Carson Alexander 12 Okemos (MI) 2 16:28.9 125.0 58 97
98 Austin Remick 9 Rochester (MI) 3 16:28.9 125.0 59 98
99 Evan Koerschner 10 Saline (MI) 3 16:28.9 125.0 60 99
100 Dillon Smith 12 Rochester (MI) 4 16:29.6 124.9 61 100
101 Alex Skender 11 Birmingham Seaholm (MI) 1 16:29.8 124.9 101
102 Grant Gabriel 11 Rockford (MI) 5 16:30.1 124.9 62 102
103 Lucas Arrivo 12 Ann Arbor Pioneer (MI) 1 16:30.8 124.8 63 103
104 Samuel Cayen 12 Saline (MI) 4 16:30.9 124.8 64 104
105 Sam Barrett 10 Walled Lake Central (MI) 4 16:32.3 124.6 65 105
106 Daniel Billette 12 Clarkston (MI) 3 16:33.6 124.4 66 106
107 Gabe Kuyten 12 Holland West Ottawa (MI) 1 16:34.1 124.3 107
108 Kael Fineout 12 Okemos (MI) 3 16:34.8 124.3 67 108
109 Paul McKinley 9 Okemos (MI) 4 16:34.9 124.3 68 109
110 Joe Hughes 11 TC West (Traverse City) (MI) 4 16:34.9 124.3 69 110
111 David Conzelmann 12 Saline (MI) 5 16:35.4 124.2 70 111
112 Scott Macpherson 10 Novi (MI) 2 16:36.1 124.1 71 112
113 Bailey Hobson 11 Detroit Catholic Central (MI) 3 16:36.4 124.1 72 113
114 Sahisnu Malapati 12 Novi (MI) 3 16:37.4 123.9 73 114
115 Zack Werth 10 White Lake Lakeland (MI) 6 16:38.2 123.8 74 115
116 David Saporito 12 Warren Mott (MI) 1 16:38.4 123.8 116
117 Abe Rycus 12 Ann Arbor Skyline (MI) 2 16:38.8 123.8 75 117
118 Gannon Foley 10 Portage Central (MI) 2 16:39.3 123.7 76 118
119 Keenan Jones 12 Livonia Franklin (MI) 2 16:40.8 123.5 119
120 Zane Coplai 12 Walled Lake Central (MI) 5 16:41.6 123.4 77 120
121 Conor Donnelly 11 Ann Arbor Skyline (MI) 3 16:42.6 123.3 78 121
122 Kenny Goolsby 11 Northville (MI) 5 16:44.5 123.1 79 122
123 Ben Racine 10 Detroit Catholic Central (MI) 4 16:45.4 123.0 80 123
124 Riad Rababeh 10 Dearborn (MI) 1 16:45.7 122.9 124
125 Brendan McClanahan 11 Temperance Bedford (MI) 1 16:46.1 122.9 81 125
126 Nick Hartstang 12 Pinckney (MI) 4 16:46.3 122.8 82 126
127 Tyler Champenou 11 Port Huron Northern (MI) 3 16:46.5 122.8 83 127
128 Jacob Johnson 12 Ann Arbor Pioneer (MI) 2 16:46.8 122.8 84 128
129 Ryan Filbeck 12 Macomb L'Anse Creuse North (MI) 2 16:47.9 122.7 85 129
130 Joe Schuler 11 Rochester (MI) 5 16:49.1 122.5 86 130
131 Paul Garbarino 12 Utica (MI) 1 16:49.5 122.5 131
132 Adam Gaboury 12 Ann Arbor Skyline (MI) 4 16:49.6 122.5 87 132
133 Zac Pepin 10 Walled Lake Central (MI) 6 16:49.9 122.4 88 133
134 Nick Arrivo 10 Ann Arbor Pioneer (MI) 3 16:50.0 122.4 89 134
135 Stone Mathers 12 Ann Arbor Pioneer (MI) 4 16:50.4 122.3 90 135
136 Chase Schweyer 12 Pinckney (MI) 5 16:50.8 122.3 91 136
137 Devon Main 12 Hudsonville (MI) 2 16:51.0 122.3 92 137
138 Rob Roest 12 Flushing (MI) 1 16:51.1 122.3 138
139 Nolan Meister 11 East Kentwood (MI) 1 16:51.6 122.2 139
140 Noah Dawn 11 Monroe (CA) 1 16:52.0 122.2 140
141 Erik Grisa 12 Livonia Stevenson (MI) 1 16:52.8 122.1 141
142 Phil Mundt 11 Clinton Twp. Chippewa Valley (MI) 1 16:52.9 122.0 142
143 Josiah Humphrey 12 Saline (MI) 6 16:53.1 122.0 93 143
144 Nick Johnson 12 Grand Haven (MI) 2 16:53.3 122.0 94 144
145 Gregory Lingle 11 Temperance Bedford (MI) 2 16:53.5 122.0 95 145
146 Matt Smith 11 Grandville (MI) 1 16:54.1 121.9 146
147 Benjamin Cracraft 10 Northville (MI) 6 16:54.2 121.9 96 147
148 Nathan Hall 12 Novi (MI) 4 16:54.3 121.9 97 148
149 Matthew Arenz 11 Lake Orion (MI) 3 16:54.3 121.9 98 149
150 Brian Stubelt 12 Portage Central (MI) 3 16:54.4 121.9 99 150
151 Max Falberg 12 Waterford Mott (MI) 6 16:54.6 121.8 100 151
152 Bryan Adamovicz 11 Saline (MI) 7 16:55.0 121.8 101 152
153 Nicholas Angerman 12 Ann Arbor Skyline (MI) 5 16:55.8 121.7 102 153
154 Aaron Jarema 10 Pinckney (MI) 6 16:56.3 121.6 103 154
155 Anthony Giannobile 9 Ann Arbor Skyline (MI) 6 16:56.4 121.6 104 155
156 John Landy 10 Novi (MI) 5 16:56.4 121.6 105 156
157 Will Jibson 12 Ann Arbor Pioneer (MI) 5 16:56.6 121.6 106 157
158 Ryan Mooney 12 Troy Athens (MI) 1 16:57.0 121.5 158
159 Dino Vivanco 12 Holly (MI) 4 16:57.1 121.5 107 159
160 Tyler Sepanik 12 TC Central (Traverse City) (MI) 5 16:57.6 121.5 108 160
161 Adam Audet 11 Temperance Bedford (MI) 3 16:57.7 121.5 109 161
162 Ramadhan Mohamed 12 East Kentwood (MI) 2 16:58.6 121.4 162
163 Kory Johnson 11 Woodhaven Brownstown (MI) 2 16:59.0 121.3 163
164 Jordan Walters 12 SCS Lakeview (MI) 1 16:59.4 121.3 110 164
165 Joe Hegger 11 Rochester (MI) 6 16:59.5 121.3 111 165
166 Jack Everts 10 Lake Orion (MI) 4 17:00.4 121.2 112 166
167 Mike Burley 10 Sterling Heights (MI) 1 17:00.5 121.1 167
168 Anthony Kroll 12 Southgate Anderson (MI) 1 17:01.1 121.1 168
169 Ben Cady 12 Okemos (MI) 5 17:01.6 121.0 113 169
170 Colin Reichenbach 12 Rockford (MI) 6 17:01.6 121.0 114 170
171 Jordan Bennett 10 Caledonia (MI) 1 17:02.1 121.0 171
172 Zac Felix 12 Holly (MI) 5 17:02.4 120.9 115 172
173 Sean Flanagan 12 Northville (MI) 7 17:03.0 120.8 116 173
174 Christopher Yatooma 12 Sterling Heights (MI) 2 17:03.2 120.8 174
175 Cameron Misko 12 Novi (MI) 6 17:04.4 120.7 117 175
176 John Miles 12 Grand Haven (MI) 3 17:04.5 120.7 118 176
177 Luke Oldford 10 Clarkston (MI) 4 17:06.2 120.5 119 177
178 Kevin Elliott 12 GR Kenowa Hills (MI) 2 17:06.3 120.5 178
179 Elliot Kadrofske 11 Okemos (MI) 6 17:07.0 120.4 120 179
180 Nicholas Davitt 11 Grand Blanc (MI) 5 17:07.2 120.3 121 180
181 Derek Sanchez 10 Hudsonville (MI) 3 17:08.0 120.2 122 181
182 Bailey Paulus 12 Port Huron Northern (MI) 4 17:08.3 120.2 123 182
183 Garrett Parzynski 12 SCS Lakeview (MI) 2 17:08.6 120.2 124 183
184 Joe Ciaravino 12 Grosse Pointe North (MI) 1 17:09.1 120.1 125 184
185 Mark Borek 10 Detroit Catholic Central (MI) 5 17:09.2 120.1 126 185
186 Hayden Holmes 9 TC West (Traverse City) (MI) 5 17:09.4 120.1 127 186
187 Kyle Wojcik 12 Waterford Mott (MI) 7 17:09.5 120.1 128 187
188 Jordan Diephouse 11 Grand Haven (MI) 4 17:09.8 120.0 129 188
189 Mohammed Munassar 9 Dearborn Edsel Ford (MI) 1 17:09.9 120.0 189
190 Dario Potter 12 Ann Arbor Pioneer (MI) 6 17:10.2 120.0 130 190
191 Mika Juuhl 10 Clarkston (MI) 5 17:10.6 120.0 131 191
192 Sahil Dagli 12 Okemos (MI) 7 17:11.5 119.8 132 192
193 Blake Staffne 11 Holly (MI) 6 17:11.7 119.8 133 193
194 Jacob Hovda 10 Portage Central (MI) 4 17:12.3 119.8 134 194
195 David McManus 10 Hudsonville (MI) 4 17:12.7 119.7 135 195
196 Nathan Peterson 10 Grand Blanc (MI) 6 17:13.0 119.7 136 196
197 Nathan Goschka 11 Grand Ledge (MI) 3 17:13.2 119.7 197
198 Dalton Seeley 11 Portage Central (MI) 5 17:13.8 119.6 137 198
199 Jordan Query 11 TC Central (Traverse City) (MI) 6 17:14.6 119.5 138 199
200 Zachary Reynolds 11 Ann Arbor Skyline (MI) 7 17:16.0 119.3 139 200
201 Dominic Hentemann 10 Grand Haven (MI) 5 17:17.8 119.1 140 201
202 Michael Greeley 9 Temperance Bedford (MI) 4 17:19.2 119.0 141 202
203 Ben Stevens 12 Holly (MI) 7 17:19.2 119.0 142 203
204 Adam Ditri 11 Novi (MI) 7 17:19.8 118.9 143 204
205 Jack Wallace 9 Ann Arbor Pioneer (MI) 7 17:20.8 118.8 144 205
206 Issa Rayyan 9 Grand Blanc (MI) 7 17:21.5 118.7 145 206
207 Kirk Dickson 12 Rockford (MI) 7 17:22.6 118.6 146 207
208 Aaron Robert 12 Warren DeLaSalle (MI) 2 17:23.3 118.5 208
209 Jacob Ernatt 11 Lake Orion (MI) 5 17:23.3 118.5 147 209
210 Jack Gillespie 9 Port Huron Northern (MI) 5 17:24.1 118.4 148 210
211 Eric Johnson 10 Grand Haven (MI) 6 17:24.2 118.4 149 211
212 Jacob Lee 11 Fenton (MI) 1 17:24.3 118.4 212
213 Trevor Sepanik 10 TC Central (Traverse City) (MI) 7 17:24.4 118.4 150 213
214 Eric Smith 11 Clarkston (MI) 6 17:24.8 118.3 151 214
215 Ben Ludtke 11 Detroit Catholic Central (MI) 6 17:24.8 118.3 152 215
216 Zach Dittenbir 10 TC West (Traverse City) (MI) 6 17:25.1 118.3 153 216
217 Flynn Darby 12 Caledonia (MI) 2 17:25.7 118.2 217
218 Matt Tarry 10 Walled Lake Central (MI) 7 17:26.6 118.1 154 218
219 Brent Petersen 12 Grand Haven (MI) 7 17:29.4 117.8 155 219
220 Ross Helmer 12 Hudsonville (MI) 5 17:29.6 117.8 156 220
221 Jacob Schaldenbrand 10 Macomb L'Anse Creuse North (MI) 3 17:29.7 117.8 157 221
222 Nathan Mack 10 Portage Central (MI) 6 17:30.6 117.7 158 222
223 Maliek Lott 12 Harrison Twp. L'Anse Creuse (MI) 1 17:31.3 117.6 223
224 Alexander Feleo 12 SCS Lakeview (MI) 3 17:31.5 117.6 159 224
225 Matthew Lezon 12 Temperance Bedford (MI) 5 17:31.9 117.5 160 225
226 Richard Johnson 12 Clarkston (MI) 7 17:32.5 117.5 161 226
227 Nate Schipper 12 Hudsonville (MI) 6 17:33.2 117.4 162 227
228 Kyle Chamberlain 11 Hudsonville (MI) 7 17:34.6 117.2 163 228
229 Drew Daenzer 10 TC West (Traverse City) (MI) 7 17:34.8 117.2 164 229
230 Alex Put 11 Sterling Heights (MI) 3 17:34.9 117.2 230
231 Zach Capulong 12 Jenison (MI) 1 17:38.9 116.7 231
232 Ian Fulton 12 White Lake Lakeland (MI) 7 17:39.8 116.7 165 232
233 Zach Huber 12 Temperance Bedford (MI) 6 17:41.4 116.5 166 233
234 Anthony Wohlfeil 11 Monroe (CA) 2 17:42.8 116.3 234
235 Everett Ottoy 12 SCS Lakeview (MI) 4 17:45.0 116.1 167 235
236 Nicholas Nunn 12 Lake Orion (MI) 6 17:46.9 115.9 168 236
237 Michael (Mike) Ciaravino 9 Grosse Pointe North (MI) 2 17:50.2 115.5 169 237
238 Alex Tonn 10 SCS Lakeview (MI) 5 17:51.0 115.4 170 238
239 Nick Actis 12 Macomb L'Anse Creuse North (MI) 4 17:52.1 115.3 171 239
240 Brendan Canavan 10 Detroit Catholic Central (MI) 7 18:02.1 114.2 172 240
241 Nathan Holland 12 SCS Lakeview (MI) 6 18:03.0 114.2 173 241
242 Kyle Hamilton 11 Pinckney (MI) 7 18:06.2 113.8 174 242
243 Caleb Shaw 12 SCS Lakeview (MI) 7 18:07.9 113.6 175 243
244 Tony Bomia 11 Temperance Bedford (MI) 7 18:08.4 113.6 176 244
245 Daniel Brady 11 Grosse Pointe North (MI) 3 18:15.6 112.8 177 245
246 Josh Fischer 11 Grosse Pointe North (MI) 4 18:16.7 112.7 178 246
247 Ryan Kolp 11 Grosse Pointe North (MI) 5 18:19.4 112.4 179 247
248 Adrian Carmer 11 Grosse Pointe North (MI) 6 18:20.0 112.4 180 248
249 Robert Beggs 11 Lake Orion (MI) 7 18:37.1 110.7 181 249
250 Riley Nickell 10 Portage Central (MI) 7 18:38.5 110.5 182 250
251 Michael Zonca 11 Macomb L'Anse Creuse North (MI) 5 18:40.2 110.4 183 251
252 Kushal Jaligama 12 Rochester (MI) 7 18:45.3 109.9 184 252
253 Cameron Petrossi 10 Port Huron Northern (MI) 6 18:55.0 108.9 185 253
254 Jared Chacon 10 Macomb L'Anse Creuse North (MI) 6 20:02.3 102.8 186 254
255 Joey Cuffaro 10 Macomb L'Anse Creuse North (MI) 7 20:19.2 101.4 187 255